Accueil
METAR-TAF:

METAR-TAF

Aéroports :

Udine, Italie

latitude: 45-59N, longitude: 013-02E, altitude: 51 m

Observation

Le bulletin a été fait il y a 36 minutes, à 06:55 UTC
Vent 5 kt de nord
Température 5°C
Humidité 87%
Pression 1021 hPa
Visibilité 10 km ou plus
Quelques nuages à une hauteur de 5000 ft
Nuages épars à une hauteur de 10000 ft

METAR: LIPI 190655Z 36005KT 9999 FEW050 SCT100 05/03 Q1021 RMK BKN VIS MIN 9999 WIND THR06 04006KT WIND THR24 03005KT BLU

Heure: 08:31 (07:31 UTC)

Prévision

Le bulletin a été fait il y a 2 heures et 31 minutes, à 05:00 UTC
Prévision valable du 19 à 06 UTC au 19 à 15 UTC
Vent 5 kt de nord/nord-est
Visibilité 10 km ou plus
Quelques nuages à une hauteur de 2000 ft
Nuages fragmentés à une hauteur de 8000 ft

TAF: LIPI 190500Z 1906/1915 02005KT 9999 FEW020 BKN080

Observations et prévisions météorologiques de plus de 4000 aéroports (messages METAR et TAF).

Les stations disponibles sont représentées par des disques jaunes et rouges sur la carte.

Passer la souris dessus pour voir le nom de la station.

Cliquer dessus pour voir les observations et prévisions météorologiques.

Pour changer de carte: cliquez sur les boutons verts avec une croix noire pour zoomer, sur le bouton vert avec un tiret pour effectuer un zoom arrière, ou sur les flèches vertes pour les cartes adjacentes.


METAR-TAF: